Time;durP1;ratioP1;P1;durP2;ratioP2;P2;SDS_P1;SDS_P2;PMS_P1;PMS_P2;Temp;Humidity;BMP_temperature;BMP_pressure;BME280_temperature;BME280_humidity;BME280_pressure;Samples;Min_cycle;Max_cycle;Signal;HPM_P1;HPM_P2
2022/07/10 00:02:15;;;;;;;2.00;1.08;;;;;;;12.93;91.99;102711.53;5023272;28;20083;-78
2022/07/10 00:04:41;;;;;;;4.07;1.10;;;;;;;12.90;92.29;102706.28;5021912;28;20044;-78
2022/07/10 00:07:06;;;;;;;1.95;0.88;;;;;;;12.88;92.56;102705.47;5018268;28;20021;-78
2022/07/10 00:09:32;;;;;;;4.20;1.25;;;;;;;12.84;92.29;102699.34;5021946;28;21100;-77
2022/07/10 00:11:57;;;;;;;5.47;1.00;;;;;;;12.82;92.29;102694.97;5020784;28;20033;-78
2022/07/10 00:14:23;;;;;;;2.53;0.80;;;;;;;12.77;92.23;102695.09;5019950;28;20517;-79
2022/07/10 00:16:49;;;;;;;4.38;0.93;;;;;;;12.75;92.26;102700.44;5019202;28;20060;-78
2022/07/10 00:19:14;;;;;;;4.32;0.80;;;;;;;12.74;92.32;102687.19;5019841;28;21098;-78
2022/07/10 00:21:40;;;;;;;4.38;1.10;;;;;;;12.72;91.93;102697.88;5019297;28;20163;-79
2022/07/10 00:24:05;;;;;;;3.45;0.80;;;;;;;12.68;92.54;102696.19;5023165;28;20037;-77
2022/07/10 00:26:34;;;;;;;1.77;0.70;;;;;;;12.66;92.33;102699.81;5018842;28;20053;-84
2022/07/10 00:29:00;;;;;;;2.15;0.93;;;;;;;12.64;92.20;102697.19;5020255;28;20044;-79
2022/07/10 00:31:25;;;;;;;4.13;1.33;;;;;;;12.61;92.13;102698.16;5022962;28;20037;-78
2022/07/10 00:33:51;;;;;;;3.20;0.80;;;;;;;12.59;92.28;102699.09;5020131;28;20025;-79
2022/07/10 00:36:16;;;;;;;3.33;0.85;;;;;;;12.58;92.09;102697.34;5018180;28;20533;-79
2022/07/10 00:38:42;;;;;;;2.20;0.80;;;;;;;12.56;92.27;102694.72;5025183;28;20044;-79
2022/07/10 00:41:08;;;;;;;2.95;0.70;;;;;;;12.53;91.87;102688.63;5022461;28;20056;-79
2022/07/10 00:44:00;;;;;;;1.27;0.70;;;;;;;12.51;92.17;102691.31;5022201;28;20040;-78
2022/07/10 00:46:27;;;;;;;1.05;0.70;;;;;;;12.49;91.97;102686.00;4998424;28;20049;-80
2022/07/10 00:48:53;;;;;;;5.45;1.08;;;;;;;12.47;91.80;102692.28;5021832;28;20057;-80
2022/07/10 00:51:22;;;;;;;1.60;0.90;;;;;;;12.45;91.52;102680.81;5023083;28;20121;-79
2022/07/10 00:53:51;;;;;;;4.13;0.88;;;;;;;12.47;91.81;102684.31;5021642;28;20148;-79
2022/07/10 00:56:19;;;;;;;3.63;0.68;;;;;;;12.47;91.80;102681.66;5021080;28;20635;-78
2022/07/10 00:58:49;;;;;;;1.52;0.70;;;;;;;12.46;91.85;102693.19;5023640;28;20037;-79
2022/07/10 01:01:15;;;;;;;2.00;0.68;;;;;;;12.46;91.91;102687.88;5021028;28;20020;-77
2022/07/10 01:03:40;;;;;;;2.83;0.70;;;;;;;12.48;91.67;102691.38;5020629;28;20471;-79
2022/07/10 01:06:06;;;;;;;5.85;1.10;;;;;;;12.50;92.22;102685.09;5020258;28;20094;-82
2022/07/10 01:08:32;;;;;;;4.20;0.88;;;;;;;12.55;92.19;102682.34;5019773;28;20136;-78
2022/07/10 01:11:00;;;;;;;3.13;0.85;;;;;;;12.57;91.98;102679.63;5020801;28;20160;-79
2022/07/10 01:13:26;;;;;;;4.18;0.82;;;;;;;12.58;92.23;102674.28;5021436;28;20030;-79
2022/07/10 01:15:52;;;;;;;2.03;0.90;;;;;;;12.60;92.51;102675.13;5002958;28;20740;-79
2022/07/10 01:18:21;;;;;;;3.88;1.30;;;;;;;12.61;92.42;102655.63;5020034;28;20041;-83
2022/07/10 01:20:54;;;;;;;6.20;1.00;;;;;;;12.63;93.03;102659.13;5015205;28;20029;-77
2022/07/10 01:23:20;;;;;;;2.63;1.00;;;;;;;12.63;93.03;102648.50;5019130;28;20083;-78
2022/07/10 01:25:46;;;;;;;3.08;1.00;;;;;;;12.65;93.40;102653.78;5023095;28;20168;-78
2022/07/10 01:28:11;;;;;;;3.55;1.20;;;;;;;12.63;93.28;102648.50;5021568;28;20045;-79
2022/07/10 01:30:39;;;;;;;4.20;1.27;;;;;;;12.63;93.20;102640.53;5019561;28;20076;-78
2022/07/10 01:33:07;;;;;;;2.17;0.60;;;;;;;12.63;92.90;102636.97;5018581;28;20041;-78
2022/07/10 01:35:35;;;;;;;3.58;0.82;;;;;;;12.62;93.04;102637.91;5022832;28;20230;-79
2022/07/10 01:38:01;;;;;;;2.92;0.70;;;;;;;12.62;92.77;102646.75;5018704;28;20031;-84
2022/07/10 01:40:27;;;;;;;2.80;0.70;;;;;;;12.62;92.90;102637.91;5017249;28;21376;-78
2022/07/10 01:42:52;;;;;;;2.88;0.60;;;;;;;12.61;92.67;102638.81;5015893;28;20115;-78
2022/07/10 01:45:18;;;;;;;1.23;0.57;;;;;;;12.59;92.80;102638.84;5022300;28;20032;-79
2022/07/10 01:47:44;;;;;;;2.13;0.80;;;;;;;12.58;92.74;102633.59;5021747;28;20036;-79
2022/07/10 01:50:09;;;;;;;1.98;0.80;;;;;;;12.59;92.32;102633.53;5021240;28;20029;-77
2022/07/10 01:52:38;;;;;;;3.42;0.77;;;;;;;12.60;92.26;102637.94;5020505;28;20088;-78
2022/07/10 01:55:05;;;;;;;3.10;1.05;;;;;;;12.58;92.22;102634.44;4997546;28;20041;-79
2022/07/10 01:57:30;;;;;;;3.60;0.70;;;;;;;12.59;91.81;102636.19;5020324;28;20494;-78
2022/07/10 01:59:56;;;;;;;2.50;0.88;;;;;;;12.60;91.78;102637.06;5020636;28;20033;-79
2022/07/10 02:02:22;;;;;;;2.97;0.65;;;;;;;12.59;91.62;102630.88;5018014;28;20047;-79
2022/07/10 02:04:47;;;;;;;3.38;0.63;;;;;;;12.60;91.49;102639.72;5021758;28;20037;-80
2022/07/10 02:07:15;;;;;;;4.28;0.52;;;;;;;12.59;91.75;102630.88;5019350;28;20152;-77
2022/07/10 02:09:44;;;;;;;2.45;0.60;;;;;;;12.59;91.39;102624.69;5004616;28;20553;-78
2022/07/10 02:12:10;;;;;;;2.25;0.82;;;;;;;12.59;91.54;102627.38;5016095;28;20128;-76
2022/07/10 02:14:36;;;;;;;2.70;0.65;;;;;;;12.62;91.74;102630.81;5016063;28;20652;-78
2022/07/10 02:17:03;;;;;;;1.63;0.60;;;;;;;12.65;91.50;102632.53;5021071;28;20503;-77
2022/07/10 02:19:31;;;;;;;3.63;0.85;;;;;;;12.66;91.22;102633.38;5024922;28;20040;-78
2022/07/10 02:21:57;;;;;;;1.17;0.63;;;;;;;12.69;91.59;102622.69;5025673;28;20044;-78
2022/07/10 02:24:22;;;;;;;3.90;0.85;;;;;;;12.73;91.63;102629.66;5020883;28;20083;-78
2022/07/10 02:26:48;;;;;;;3.15;0.70;;;;;;;12.78;91.97;102619.78;5022219;28;20087;-77
2022/07/10 02:29:14;;;;;;;3.22;1.67;;;;;;;12.84;91.95;102624.94;5023657;28;20029;-78
2022/07/10 02:31:40;;;;;;;3.15;0.80;;;;;;;12.89;91.86;102614.16;5024064;28;20033;-80
2022/07/10 02:34:07;;;;;;;3.15;0.60;;;;;;;12.91;92.27;102607.00;5021526;28;20113;-79
2022/07/10 02:36:33;;;;;;;1.13;0.60;;;;;;;12.96;92.32;102607.75;5026024;28;20031;-79
2022/07/10 02:38:59;;;;;;;4.05;0.70;;;;;;;13.01;92.66;102602.31;5021923;28;20042;-78
2022/07/10 02:41:24;;;;;;;2.92;0.75;;;;;;;13.06;92.65;102607.53;5025429;28;20412;-77
2022/07/10 02:43:50;;;;;;;1.08;0.52;;;;;;;13.11;92.72;102613.56;5025505;28;20557;-76
2022/07/10 02:46:15;;;;;;;0.60;0.60;;;;;;;13.13;92.79;102607.28;5024292;28;20048;-77
2022/07/10 02:48:41;;;;;;;3.55;0.80;;;;;;;13.17;92.81;102595.66;5025382;28;20580;-78
2022/07/10 02:51:07;;;;;;;8.85;4.68;;;;;;;13.22;93.43;102600.84;5023141;28;20116;-77
2022/07/10 02:53:32;;;;;;;3.38;1.00;;;;;;;13.25;93.19;102599.91;5031619;28;20042;-79
2022/07/10 02:55:58;;;;;;;2.58;1.00;;;;;;;13.26;93.65;102605.19;5022843;28;20037;-78
2022/07/10 02:58:23;;;;;;;2.03;1.00;;;;;;;13.29;94.09;102604.22;5020347;28;20501;-78
2022/07/10 03:00:49;;;;;;;4.72;0.88;;;;;;;13.30;94.18;102605.97;5021327;28;20033;-78
2022/07/10 03:03:17;;;;;;;3.38;0.70;;;;;;;13.30;94.02;102609.47;5026446;28;20031;-77
2022/07/10 03:05:44;;;;;;;2.25;0.70;;;;;;;13.33;94.07;102605.84;5021477;28;20079;-78
2022/07/10 03:08:10;;;;;;;1.85;1.02;;;;;;;13.34;94.39;102607.59;5016540;28;20038;-81
2022/07/10 03:10:36;;;;;;;3.45;1.02;;;;;;;13.36;94.40;102605.78;5021614;28;20099;-80
2022/07/10 03:13:02;;;;;;;10.15;4.95;;;;;;;13.37;94.69;102596.00;5022056;28;20039;-78
2022/07/10 03:15:28;;;;;;;1.10;0.90;;;;;;;13.36;94.68;102600.47;5003880;28;20053;-82
2022/07/10 03:17:53;;;;;;;2.78;0.93;;;;;;;13.35;95.01;102600.50;5021295;28;20670;-80
2022/07/10 03:20:19;;;;;;;3.70;0.75;;;;;;;13.34;95.63;102601.44;5023906;28;20037;-79
2022/07/10 03:22:44;;;;;;;1.35;0.80;;;;;;;13.31;95.28;102605.03;5024264;28;20025;-78
2022/07/10 03:25:13;;;;;;;2.28;0.85;;;;;;;13.31;96.15;102602.38;5032368;28;20117;-79
2022/07/10 03:27:39;;;;;;;3.90;1.00;;;;;;;13.28;97.29;102605.09;5024749;28;20024;-78
2022/07/10 03:30:08;;;;;;;2.45;0.90;;;;;;;13.26;97.63;102599.84;5015851;28;20037;-78
2022/07/10 03:32:36;;;;;;;2.17;0.80;;;;;;;13.26;97.66;102601.63;5021076;28;20552;-79
2022/07/10 03:35:02;;;;;;;5.38;1.10;;;;;;;13.26;98.82;102596.31;5023920;28;20041;-78
2022/07/10 03:37:28;;;;;;;2.40;1.00;;;;;;;13.27;98.64;102595.41;5005622;28;20149;-76
2022/07/10 03:39:57;;;;;;;4.88;1.20;;;;;;;13.26;99.19;102589.22;5017013;28;20037;-78
2022/07/10 03:42:23;;;;;;;1.83;1.05;;;;;;;13.27;99.12;102592.72;5021934;28;20040;-80
2022/07/10 03:44:48;;;;;;;2.60;1.17;;;;;;;13.28;99.76;102592.69;5023677;28;20470;-78
2022/07/10 03:47:17;;;;;;;3.38;0.90;;;;;;;13.30;99.37;102595.31;5003992;28;20035;-77
2022/07/10 03:49:42;;;;;;;2.95;1.00;;;;;;;13.33;99.54;102597.03;5021993;28;20124;-78
2022/07/10 03:52:11;;;;;;;4.53;1.65;;;;;;;13.34;99.77;102594.28;5023976;28;20169;-82
2022/07/10 03:54:37;;;;;;;2.85;1.25;;;;;;;13.35;99.97;102589.88;5023490;28;20384;-80
2022/07/10 03:59:47;;;;;;;2.17;1.10;;;;;;;13.37;99.86;102599.53;5018594;28;20120;-77
2022/07/10 04:02:12;;;;;;;2.22;1.10;;;;;;;13.38;100.00;102598.63;5017084;28;20059;-78
2022/07/10 04:04:38;;;;;;;6.03;1.30;;;;;;;13.38;100.00;102593.31;5024822;28;20056;-79
2022/07/10 04:07:06;;;;;;;3.13;1.20;;;;;;;13.37;100.00;102594.22;5021733;28;20086;-80
2022/07/10 04:09:32;;;;;;;1.75;1.00;;;;;;;13.37;100.00;102596.88;5018214;28;20030;-78
2022/07/10 04:11:57;;;;;;;3.15;1.00;;;;;;;13.38;100.00;102592.41;5019809;28;20029;-79
2022/07/10 04:14:23;;;;;;;5.30;1.23;;;;;;;13.37;100.00;102591.56;5021294;28;20055;-77
2022/07/10 04:16:49;;;;;;;2.97;1.10;;;;;;;13.38;100.00;102595.06;5013896;28;20053;-77
2022/07/10 04:19:15;;;;;;;5.60;1.08;;;;;;;13.38;100.00;102595.06;5021692;28;20033;-78
2022/07/10 04:21:43;;;;;;;3.72;1.52;;;;;;;13.37;100.00;102588.91;5021346;28;20095;-78
2022/07/10 04:24:18;;;;;;;1.70;1.10;;;;;;;13.39;100.00;102588.84;5023977;28;20135;-77
2022/07/10 04:26:44;;;;;;;2.47;1.10;;;;;;;13.40;100.00;102595.94;5021893;28;20415;-78
2022/07/10 04:29:12;;;;;;;2.75;1.20;;;;;;;13.41;100.00;102590.53;5020524;28;20167;-79
2022/07/10 04:31:37;;;;;;;3.47;1.30;;;;;;;13.43;100.00;102587.84;5021389;28;20033;-80
2022/07/10 04:34:03;;;;;;;2.47;0.90;;;;;;;13.44;100.00;102592.25;5000612;28;20060;-76
2022/07/10 04:36:30;;;;;;;1.40;1.10;;;;;;;13.46;100.00;102590.47;5016989;28;20036;-78
2022/07/10 04:38:56;;;;;;;4.45;1.00;;;;;;;13.48;100.00;102580.63;5020684;28;20048;-79
2022/07/10 04:41:21;;;;;;;3.72;1.10;;;;;;;13.50;100.00;102580.59;5012220;28;20077;-78
2022/07/10 04:43:47;;;;;;;5.65;1.20;;;;;;;13.52;100.00;102584.06;5018049;28;20032;-78
2022/07/10 04:46:12;;;;;;;2.03;1.02;;;;;;;13.53;100.00;102592.00;5017320;28;20604;-79
2022/07/10 04:48:38;;;;;;;2.35;1.30;;;;;;;13.54;100.00;102577.78;5021878;28;20143;-79
2022/07/10 04:51:03;;;;;;;5.13;1.30;;;;;;;13.56;100.00;102581.25;5022005;28;20041;-82
2022/07/10 04:53:29;;;;;;;2.33;1.20;;;;;;;13.58;100.00;102576.75;5020255;28;20069;-78
2022/07/10 04:55:54;;;;;;;2.00;1.20;;;;;;;13.63;100.00;102587.28;5019639;28;20029;-79
2022/07/10 04:58:23;;;;;;;1.65;1.10;;;;;;;13.65;100.00;102580.13;5018574;28;20044;-79
2022/07/10 05:00:51;;;;;;;2.97;1.25;;;;;;;13.67;100.00;102572.09;5017387;28;20029;-78
2022/07/10 05:03:17;;;;;;;3.45;0.95;;;;;;;13.70;100.00;102572.88;5016503;28;20029;-74
2022/07/10 05:05:43;;;;;;;2.90;1.08;;;;;;;13.73;100.00;102576.34;5022307;28;20033;-78
2022/07/10 05:08:09;;;;;;;3.17;1.52;;;;;;;13.75;100.00;102571.84;5021623;28;20033;-81
2022/07/10 05:10:35;;;;;;;1.77;1.23;;;;;;;13.77;100.00;102570.88;5021395;28;20155;-80
2022/07/10 05:13:06;;;;;;;4.28;1.30;;;;;;;13.79;100.00;102569.03;5019514;28;20041;-81
2022/07/10 05:15:32;;;;;;;2.60;0.90;;;;;;;13.83;100.00;102572.44;5015981;28;20796;-80
2022/07/10 05:17:58;;;;;;;4.15;1.25;;;;;;;13.84;100.00;102574.22;5022053;28;20060;-81
2022/07/10 05:20:23;;;;;;;2.50;1.38;;;;;;;13.85;100.00;102566.16;5019156;28;20049;-78
2022/07/10 05:22:49;;;;;;;2.28;1.02;;;;;;;13.87;100.00;102567.91;5021557;28;20029;-81
2022/07/10 05:25:14;;;;;;;2.75;1.42;;;;;;;13.90;100.00;102567.81;5034170;28;20033;-79
2022/07/10 05:27:40;;;;;;;6.30;1.45;;;;;;;13.92;100.00;102568.63;5024438;28;20117;-79
2022/07/10 05:30:09;;;;;;;5.22;1.30;;;;;;;13.92;100.00;102572.19;5022826;28;20095;-78
2022/07/10 05:32:42;;;;;;;5.63;1.20;;;;;;;13.94;100.00;102575.66;5017333;28;20041;-79
2022/07/10 05:35:08;;;;;;;2.55;1.30;;;;;;;13.93;100.00;102581.03;5001351;28;20021;-77
2022/07/10 05:37:37;;;;;;;3.70;1.20;;;;;;;13.93;100.00;102581.91;5023476;28;20037;-79
2022/07/10 05:40:03;;;;;;;3.00;1.30;;;;;;;13.92;100.00;102582.84;5026052;28;20069;-80
2022/07/10 05:42:30;;;;;;;4.30;1.30;;;;;;;13.93;100.00;102581.91;5019332;28;21351;-77
2022/07/10 05:44:55;;;;;;;2.38;1.15;;;;;;;13.94;100.00;102580.97;5021389;28;20721;-79
2022/07/10 05:47:20;;;;;;;3.78;1.00;;;;;;;13.97;100.00;102580.03;5023647;28;20584;-80
2022/07/10 05:49:49;;;;;;;1.63;0.80;;;;;;;13.98;100.00;102585.31;5024787;28;20134;-81
2022/07/10 05:52:14;;;;;;;1.35;0.85;;;;;;;13.97;100.00;102588.88;5003076;28;20032;-79
2022/07/10 05:54:40;;;;;;;2.42;1.00;;;;;;;13.97;100.00;102583.56;5027025;28;20038;-78
2022/07/10 05:57:05;;;;;;;2.22;1.00;;;;;;;14.01;100.00;102583.44;5022102;28;20579;-77
2022/07/10 05:59:34;;;;;;;4.20;1.10;;;;;;;14.02;100.00;102578.09;5023276;28;20033;-80
2022/07/10 06:02:09;;;;;;;2.00;0.93;;;;;;;14.07;100.00;102585.91;5005589;28;20161;-80
2022/07/10 06:04:37;;;;;;;1.00;0.90;;;;;;;14.13;100.00;102580.41;5025733;28;20068;-80
2022/07/10 06:07:08;;;;;;;3.13;1.20;;;;;;;14.18;100.00;102570.47;5025974;28;20037;-80
2022/07/10 06:09:34;;;;;;;3.78;1.10;;;;;;;14.29;100.00;102570.09;5027874;28;20025;-80
2022/07/10 06:12:02;;;;;;;1.85;1.08;;;;;;;14.43;100.00;102572.28;5025148;28;20033;-77
2022/07/10 06:14:28;;;;;;;1.20;0.93;;;;;;;14.55;100.00;102575.44;5027251;28;20465;-80
2022/07/10 06:16:53;;;;;;;2.50;1.00;;;;;;;14.64;100.00;102585.78;5026876;28;20834;-80
2022/07/10 06:19:19;;;;;;;2.80;1.50;;;;;;;14.69;100.00;102572.28;5026356;28;20268;-80
2022/07/10 06:21:45;;;;;;;2.83;0.90;;;;;;;14.71;100.00;102579.31;5028438;28;20127;-83
2022/07/10 06:24:10;;;;;;;1.60;0.85;;;;;;;14.69;100.00;102583.84;5009119;28;20044;-79
2022/07/10 06:26:36;;;;;;;1.85;1.45;;;;;;;14.62;100.00;102582.31;5026933;28;20044;-76
2022/07/10 06:29:02;;;;;;;0.95;0.88;;;;;;;14.51;100.00;102594.19;5022499;28;20505;-81
2022/07/10 06:31:28;;;;;;;1.80;1.17;;;;;;;14.40;100.00;102593.72;5026560;28;20428;-78
2022/07/10 06:33:54;;;;;;;2.08;1.10;;;;;;;14.30;100.00;102592.25;5026878;28;20042;-82
2022/07/10 06:36:20;;;;;;;2.90;1.20;;;;;;;14.25;100.00;102598.63;5021538;28;20025;-81
2022/07/10 06:38:45;;;;;;;1.10;1.00;;;;;;;14.23;100.00;102584.47;5008564;28;20128;-78
2022/07/10 06:41:13;;;;;;;2.80;1.05;;;;;;;14.29;100.00;102583.41;5024565;28;20075;-83
2022/07/10 06:43:39;;;;;;;2.35;1.17;;;;;;;14.31;100.00;102588.66;5022539;28;21074;-80
2022/07/10 06:46:05;;;;;;;2.50;1.00;;;;;;;14.29;100.00;102575.44;5018807;28;20041;-74
2022/07/10 06:48:30;;;;;;;1.13;1.08;;;;;;;14.29;100.00;102591.41;5021512;28;20033;-76
2022/07/10 06:50:56;;;;;;;1.17;1.00;;;;;;;14.25;100.00;102593.31;5022579;28;20044;-76
2022/07/10 06:53:26;;;;;;;2.00;1.20;;;;;;;14.22;100.00;102589.88;5027147;28;20048;-83
2022/07/10 06:55:55;;;;;;;3.40;1.00;;;;;;;14.19;100.00;102595.28;5010169;28;20049;-87
2022/07/10 06:58:21;;;;;;;2.88;1.05;;;;;;;14.13;100.00;102585.72;5023055;28;20059;-81
2022/07/10 07:00:46;;;;;;;3.80;1.17;;;;;;;14.12;100.00;102590.16;5023704;28;20051;-87
2022/07/10 07:03:12;;;;;;;5.57;1.30;;;;;;;14.13;100.00;102583.06;5003989;28;20552;-82
2022/07/10 07:05:38;;;;;;;3.00;1.20;;;;;;;14.13;100.00;102583.06;5027223;28;20118;-88
2022/07/10 07:08:04;;;;;;;4.53;1.63;;;;;;;14.11;100.00;102576.91;5023958;28;20037;-83
2022/07/10 07:10:31;;;;;;;4.00;1.42;;;;;;;14.11;100.00;102582.25;5022572;28;20029;-83
2022/07/10 07:12:57;;;;;;;1.45;1.13;;;;;;;14.14;100.00;102582.13;5025432;28;22264;-84
2022/07/10 07:15:24;;;;;;;4.97;1.52;;;;;;;14.20;100.00;102589.03;5027944;28;20064;-84
2022/07/10 07:18:08;;;;;;;2.25;1.10;;;;;;;14.22;100.00;102593.41;5023556;28;20114;-85
2022/07/10 07:23:19;;;;;;;3.58;1.20;;;;;;;14.31;100.00;102584.22;5025132;28;20033;-80
2022/07/10 07:25:48;;;;;;;4.80;1.70;;;;;;;14.34;100.00;102581.44;5025104;28;20052;-78
2022/07/10 07:28:15;;;;;;;2.10;1.10;;;;;;;14.35;100.00;102590.31;5027552;28;20029;-81
2022/07/10 07:30:44;;;;;;;3.92;1.20;;;;;;;14.38;100.00;102590.22;5010281;28;20741;-80
2022/07/10 07:33:09;;;;;;;3.38;1.50;;;;;;;14.41;100.00;102584.78;5027670;28;20119;-79
2022/07/10 07:35:35;;;;;;;1.95;1.15;;;;;;;14.45;100.00;102589.09;5029077;28;20029;-81
2022/07/10 07:38:01;;;;;;;3.25;1.40;;;;;;;14.49;100.00;102577.41;5019423;28;20041;-79
2022/07/10 07:40:27;;;;;;;1.35;1.10;;;;;;;14.52;100.00;102581.75;5020462;28;20034;-78
2022/07/10 07:42:53;;;;;;;2.42;1.50;;;;;;;14.54;100.00;102579.91;5022620;28;20048;-80
2022/07/10 07:45:20;;;;;;;4.45;1.50;;;;;;;14.57;100.00;102578.94;5018492;28;20033;-79
2022/07/10 07:48:05;;;;;;;3.92;1.23;;;;;;;14.61;100.00;102577.91;5000684;28;20472;-77
2022/07/10 07:50:35;;;;;;;1.45;1.10;;;;;;;14.60;100.00;102582.34;5026147;28;20037;-80
2022/07/10 07:53:02;;;;;;;0.98;0.93;;;;;;;14.59;100.00;102577.09;5020702;28;20035;-80
2022/07/10 07:55:29;;;;;;;3.45;1.00;;;;;;;14.61;100.00;102585.91;5027098;28;20033;-80
2022/07/10 07:57:56;;;;;;;3.53;1.15;;;;;;;14.65;100.00;102576.84;5009298;28;20033;-82
2022/07/10 08:00:23;;;;;;;1.48;0.98;;;;;;;14.69;100.00;102585.63;5019750;28;20040;-75
2022/07/10 08:02:58;;;;;;;1.67;1.20;;;;;;;14.74;100.00;102589.03;5036901;28;20060;-85
2022/07/10 08:05:24;;;;;;;1.00;0.90;;;;;;;14.80;100.00;102591.47;5000478;28;20051;-82
2022/07/10 08:07:55;;;;;;;2.70;1.00;;;;;;;14.88;100.00;102593.88;4987111;28;20115;-84
2022/07/10 08:10:22;;;;;;;7.63;1.30;;;;;;;14.94;100.00;102593.66;5004752;28;20075;-78
2022/07/10 08:12:48;;;;;;;2.35;1.00;;;;;;;15.10;100.00;102596.66;4987787;28;20044;-86
2022/07/10 08:15:16;;;;;;;1.05;0.80;;;;;;;15.28;100.00;102579.06;5023472;28;20028;-89
2022/07/10 08:17:41;;;;;;;2.75;1.00;;;;;;;15.54;100.00;102593.22;5015736;28;20155;-86
2022/07/10 08:20:11;;;;;;;1.83;1.17;;;;;;;15.73;100.00;102588.03;5026091;28;20496;-80
2022/07/10 08:22:36;;;;;;;1.48;0.90;;;;;;;15.81;100.00;102585.06;4992507;28;20532;-89
2022/07/10 08:25:02;;;;;;;1.08;1.00;;;;;;;15.81;100.00;102593.06;5026216;28;20108;-81
2022/07/10 08:27:28;;;;;;;1.30;1.00;;;;;;;15.74;100.00;102587.09;5024479;28;20407;-78
2022/07/10 08:29:54;;;;;;;2.75;1.23;;;;;;;15.66;100.00;102591.88;5024202;28;20400;-79
2022/07/10 08:32:19;;;;;;;2.10;0.90;;;;;;;15.59;100.00;102588.56;5021794;28;20025;-81
2022/07/10 08:34:45;;;;;;;2.58;1.00;;;;;;;15.54;100.00;102590.56;5023812;28;20040;-82
2022/07/10 08:37:16;;;;;;;3.33;1.10;;;;;;;15.49;100.00;102589.84;5023905;28;20053;-84
2022/07/10 08:39:42;;;;;;;1.17;0.93;;;;;;;15.42;100.00;102599.03;5023102;28;20114;-80
2022/07/10 08:42:10;;;;;;;1.05;0.73;;;;;;;15.34;100.00;102592.19;5022371;28;20033;-80
2022/07/10 08:44:37;;;;;;;2.88;0.90;;;;;;;15.32;100.00;102583.34;5024490;28;20029;-81
2022/07/10 08:47:03;;;;;;;2.45;1.15;;;;;;;15.33;100.00;102581.56;5039981;28;20141;-80
2022/07/10 08:49:30;;;;;;;3.10;0.80;;;;;;;15.39;100.00;102585.78;5011516;28;20068;-80
2022/07/10 08:52:06;;;;;;;1.85;1.15;;;;;;;15.48;100.00;102580.13;5024378;28;20156;-77
2022/07/10 08:54:38;;;;;;;1.65;1.15;;;;;;;15.57;100.00;102581.53;5007705;28;20036;-78
2022/07/10 08:57:03;;;;;;;4.88;1.13;;;;;;;15.65;100.00;102578.56;5021457;28;20029;-77
2022/07/10 08:59:29;;;;;;;2.65;0.93;;;;;;;15.70;100.00;102587.28;5019903;28;20503;-79
2022/07/10 09:01:55;;;;;;;4.97;1.00;;;;;;;15.69;100.00;102586.38;5024471;28;20506;-77
2022/07/10 09:04:25;;;;;;;1.98;1.30;;;;;;;15.70;100.00;102585.47;5027057;28;20042;-77
2022/07/10 09:06:53;;;;;;;2.65;0.90;;;;;;;15.66;100.00;102590.97;5020031;28;20052;-78
2022/07/10 09:09:19;;;;;;;2.13;1.20;;;;;;;15.59;100.00;102580.53;5022964;28;20173;-77
2022/07/10 09:11:46;;;;;;;2.38;1.17;;;;;;;15.54;100.00;102582.56;5022472;28;20098;-81
2022/07/10 09:14:14;;;;;;;1.00;0.90;;;;;;;15.49;100.00;102584.50;5036290;28;20033;-81
2022/07/10 09:16:45;;;;;;;3.53;1.05;;;;;;;15.50;100.00;102574.69;5031660;28;20423;-80
2022/07/10 09:19:16;;;;;;;4.18;1.50;;;;;;;15.52;100.00;102579.03;5028741;28;20107;-81
2022/07/10 09:21:43;;;;;;;5.15;1.30;;;;;;;15.57;100.00;102581.53;5030756;28;20055;-82
2022/07/10 09:24:09;;;;;;;2.55;1.08;;;;;;;15.60;100.00;102578.75;5003680;28;20095;-81
2022/07/10 09:26:39;;;;;;;3.63;1.33;;;;;;;15.74;100.00;102583.53;5028547;28;20495;-80
2022/07/10 09:29:11;;;;;;;3.42;1.40;;;;;;;15.85;100.00;102578.66;5027647;28;20427;-81
2022/07/10 09:31:54;;;;;;;4.55;1.40;;;;;;;15.96;100.00;102582.72;5027629;28;20053;-80
2022/07/10 09:34:40;;;;;;;2.75;1.00;;;;;;;16.04;100.00;102580.59;5027735;28;20071;-80
2022/07/10 09:37:28;;;;;;;3.72;1.05;;;;;;;16.18;100.00;102571.16;5024494;28;20067;-80
2022/07/10 09:39:57;;;;;;;4.15;0.98;;;;;;;16.33;100.00;102580.34;5024106;28;20025;-80
2022/07/10 09:42:40;;;;;;;2.30;1.27;;;;;;;16.40;100.00;102588.00;5026108;28;21478;-81
2022/07/10 09:45:16;;;;;;;;;;;;;;;16.39;100.00;102588.94;5032208;28;20025;-82
2022/07/10 09:47:51;;;;;;;3.42;1.15;;;;;;;16.36;100.00;102590.88;5030759;28;19921;-80
2022/07/10 09:50:30;;;;;;;1.55;1.10;;;;;;;16.30;100.00;102581.31;5024486;28;20028;-80
2022/07/10 09:52:55;;;;;;;3.30;1.33;;;;;;;16.29;100.00;102579.59;5023112;28;20061;-81
2022/07/10 09:55:24;;;;;;;4.00;1.10;;;;;;;16.30;100.00;102584.00;5027488;28;20919;-81
2022/07/10 09:57:55;;;;;;;0.77;0.73;;;;;;;16.37;100.00;102581.91;4990367;28;20037;-79
2022/07/10 10:00:31;;;;;;;1.48;1.05;;;;;;;16.43;100.00;102590.56;5029655;28;20451;-80
2022/07/10 10:03:02;;;;;;;3.83;1.15;;;;;;;16.49;100.00;102580.53;5029173;28;20538;-81
2022/07/10 10:05:45;;;;;;;2.95;1.33;;;;;;;16.52;100.00;102575.06;5026070;28;20684;-81
2022/07/10 10:08:19;;;;;;;1.95;1.15;;;;;;;16.54;100.00;102573.19;5027634;28;20030;-80
2022/07/10 10:10:47;;;;;;;0.80;0.80;;;;;;;16.53;100.00;102587.47;5030951;28;20029;-81
2022/07/10 10:13:17;;;;;;;0.95;0.80;;;;;;;16.44;100.00;102591.41;5006589;28;20037;-84
2022/07/10 10:15:44;;;;;;;2.50;1.10;;;;;;;16.40;100.00;102582.66;5020734;28;20051;-81
2022/07/10 10:18:10;;;;;;;1.77;1.10;;;;;;;16.36;100.00;102580.19;5026865;28;20065;-82
2022/07/10 10:20:41;;;;;;;1.92;1.08;;;;;;;16.30;100.00;102586.66;5022412;28;20021;-81
2022/07/10 10:23:13;;;;;;;2.03;1.23;;;;;;;16.25;100.00;102583.31;5021852;28;20559;-81
2022/07/10 10:25:40;;;;;;;2.78;1.48;;;;;;;16.25;100.00;102580.66;5026647;28;20775;-86
2022/07/10 10:28:08;;;;;;;2.88;1.55;;;;;;;16.21;100.00;102581.69;5022674;28;20061;-84
2022/07/10 10:30:38;;;;;;;4.72;1.10;;;;;;;16.14;100.00;102581.09;5001398;28;20036;-81
2022/07/10 10:33:23;;;;;;;1.60;1.02;;;;;;;16.12;100.00;102575.81;5023071;28;20110;-80
2022/07/10 10:35:49;;;;;;;3.35;1.30;;;;;;;16.12;100.00;102582.97;5024324;28;20779;-79
2022/07/10 10:38:17;;;;;;;4.28;1.25;;;;;;;16.05;100.00;102578.78;5024321;28;20041;-82
2022/07/10 10:40:42;;;;;;;2.22;1.35;;;;;;;15.99;100.00;102577.25;5020864;28;20036;-83
2022/07/10 10:43:19;;;;;;;3.50;1.50;;;;;;;15.94;100.00;102579.22;5026074;28;20041;-83
2022/07/10 10:45:45;;;;;;;2.25;1.27;;;;;;;15.93;100.00;102570.38;5026889;28;20512;-85
2022/07/10 10:48:17;;;;;;;3.05;1.40;;;;;;;15.97;100.00;102569.28;5003460;28;20689;-81
2022/07/10 10:50:42;;;;;;;2.05;1.10;;;;;;;16.07;100.00;102563.59;5027090;28;20292;-78
2022/07/10 10:53:31;;;;;;;2.97;1.10;;;;;;;16.14;100.00;102575.75;5026779;28;20040;-82
2022/07/10 10:55:59;;;;;;;2.33;1.00;;;;;;;16.26;100.00;102571.69;5026520;28;20068;-80
2022/07/10 10:58:26;;;;;;;2.47;1.00;;;;;;;16.35;99.56;102557.94;5027744;28;20041;-81
2022/07/10 11:01:05;;;;;;;1.27;0.90;;;;;;;16.50;99.15;102561.75;5025453;28;20187;-81
2022/07/10 11:03:31;;;;;;;2.50;0.90;;;;;;;16.60;99.00;102550.66;5023603;28;20115;-78
2022/07/10 11:05:56;;;;;;;2.90;1.20;;;;;;;16.68;98.02;102549.38;5035861;28;20451;-77
2022/07/10 11:08:37;;;;;;;2.90;0.90;;;;;;;16.76;96.87;102556.19;5023498;28;20056;-80
2022/07/10 11:11:31;;;;;;;1.25;0.90;;;;;;;16.82;95.96;102554.13;5021529;28;20033;-83
2022/07/10 11:13:58;;;;;;;1.00;0.90;;;;;;;16.82;95.97;102561.25;5021564;28;20092;-80
2022/07/10 11:16:27;;;;;;;1.00;0.82;;;;;;;16.83;95.78;102560.31;5027636;28;20037;-81
2022/07/10 11:18:53;;;;;;;1.42;0.80;;;;;;;16.86;95.23;102562.00;5027237;28;20038;-79
2022/07/10 11:21:24;;;;;;;1.08;0.77;;;;;;;16.89;95.29;102561.88;5038273;28;20086;-77
2022/07/10 11:24:03;;;;;;;0.90;0.82;;;;;;;16.90;94.29;102552.91;5027641;28;20350;-78
2022/07/10 11:26:37;;;;;;;1.85;0.88;;;;;;;16.94;94.70;102559.84;5004254;28;20037;-80
2022/07/10 11:29:06;;;;;;;1.45;0.93;;;;;;;16.96;93.72;102552.63;5021423;28;20032;-82
2022/07/10 11:31:41;;;;;;;1.88;0.80;;;;;;;17.00;93.49;102548.84;5027313;28;20064;-78